sensor_id;sensor_type;location;lat;lon;timestamp;pressure;altitude;pressure_sealevel;temperature;humidity
9249;BME280;4660;41.768;26.198;2023-12-04T00:01:09;101263.50;;;9.23;100.00
9249;BME280;4660;41.768;26.198;2023-12-04T00:03:35;101271.78;;;9.31;100.00
9249;BME280;4660;41.768;26.198;2023-12-04T00:06:00;101259.09;;;9.22;100.00
9249;BME280;4660;41.768;26.198;2023-12-04T00:08:26;101257.81;;;9.04;100.00
9249;BME280;4660;41.768;26.198;2023-12-04T00:10:51;101273.88;;;8.93;100.00
9249;BME280;4660;41.768;26.198;2023-12-04T00:13:19;101281.06;;;8.92;100.00
9249;BME280;4660;41.768;26.198;2023-12-04T00:15:45;101272.06;;;8.93;100.00
9249;BME280;4660;41.768;26.198;2023-12-04T00:18:10;101274.06;;;8.78;100.00
9249;BME280;4660;41.768;26.198;2023-12-04T00:20:36;101286.56;;;8.91;100.00
9249;BME280;4660;41.768;26.198;2023-12-04T00:23:02;101273.84;;;8.81;100.00
9249;BME280;4660;41.768;26.198;2023-12-04T00:25:28;101295.75;;;8.99;100.00
9249;BME280;4660;41.768;26.198;2023-12-04T00:27:53;101304.28;;;8.93;100.00
9249;BME280;4660;41.768;26.198;2023-12-04T00:30:19;101299.72;;;8.82;100.00
9249;BME280;4660;41.768;26.198;2023-12-04T00:32:45;101320.13;;;8.96;100.00
9249;BME280;4660;41.768;26.198;2023-12-04T00:35:10;101321.44;;;9.15;100.00
9249;BME280;4660;41.768;26.198;2023-12-04T00:37:36;101306.78;;;9.07;100.00
9249;BME280;4660;41.768;26.198;2023-12-04T00:40:05;101328.00;;;9.10;100.00
9249;BME280;4660;41.768;26.198;2023-12-04T00:42:31;101329.28;;;8.70;100.00
9249;BME280;4660;41.768;26.198;2023-12-04T00:44:56;101328.44;;;8.93;100.00
9249;BME280;4660;41.768;26.198;2023-12-04T00:47:22;101312.81;;;8.98;100.00
9249;BME280;4660;41.768;26.198;2023-12-04T00:49:47;101326.28;;;9.09;100.00
9249;BME280;4660;41.768;26.198;2023-12-04T00:52:13;101321.19;;;8.82;100.00
9249;BME280;4660;41.768;26.198;2023-12-04T00:54:39;101323.56;;;8.74;100.00
9249;BME280;4660;41.768;26.198;2023-12-04T00:57:06;101329.91;;;8.73;100.00
9249;BME280;4660;41.768;26.198;2023-12-04T00:59:37;101336.09;;;8.87;100.00
9249;BME280;4660;41.768;26.198;2023-12-04T01:02:02;101333.44;;;8.98;100.00
9249;BME280;4660;41.768;26.198;2023-12-04T01:04:28;101329.81;;;8.75;100.00
9249;BME280;4660;41.768;26.198;2023-12-04T01:06:53;101345.47;;;8.92;100.00
9249;BME280;4660;41.768;26.198;2023-12-04T01:09:19;101360.56;;;8.82;100.00
9249;BME280;4660;41.768;26.198;2023-12-04T01:11:53;101367.91;;;8.91;100.00
9249;BME280;4660;41.768;26.198;2023-12-04T01:14:20;101355.75;;;8.98;100.00
9249;BME280;4660;41.768;26.198;2023-12-04T01:16:45;101362.38;;;9.05;100.00
9249;BME280;4660;41.768;26.198;2023-12-04T01:19:11;101355.53;;;9.01;100.00
9249;BME280;4660;41.768;26.198;2023-12-04T01:21:36;101332.31;;;8.89;100.00
9249;BME280;4660;41.768;26.198;2023-12-04T01:24:02;101345.56;;;8.79;100.00
9249;BME280;4660;41.768;26.198;2023-12-04T01:26:28;101348.50;;;8.64;100.00
9249;BME280;4660;41.768;26.198;2023-12-04T01:28:53;101342.69;;;8.70;100.00
9249;BME280;4660;41.768;26.198;2023-12-04T01:31:19;101331.44;;;8.89;100.00
9249;BME280;4660;41.768;26.198;2023-12-04T01:33:44;101327.72;;;9.02;100.00
9249;BME280;4660;41.768;26.198;2023-12-04T01:36:10;101330.94;;;8.83;100.00
9249;BME280;4660;41.768;26.198;2023-12-04T01:38:37;101333.56;;;8.72;100.00
9249;BME280;4660;41.768;26.198;2023-12-04T01:41:03;101334.59;;;8.59;100.00
9249;BME280;4660;41.768;26.198;2023-12-04T01:43:29;101320.25;;;8.34;100.00
9249;BME280;4660;41.768;26.198;2023-12-04T01:45:54;101370.44;;;8.58;100.00
9249;BME280;4660;41.768;26.198;2023-12-04T01:48:20;101382.59;;;8.50;100.00
9249;BME280;4660;41.768;26.198;2023-12-04T01:50:47;101383.59;;;8.37;100.00
9249;BME280;4660;41.768;26.198;2023-12-04T01:53:12;101393.75;;;8.44;100.00
9249;BME280;4660;41.768;26.198;2023-12-04T01:55:38;101378.31;;;8.22;100.00
9249;BME280;4660;41.768;26.198;2023-12-04T01:58:04;101387.78;;;8.03;100.00
9249;BME280;4660;41.768;26.198;2023-12-04T02:00:31;101390.78;;;7.72;100.00
9249;BME280;4660;41.768;26.198;2023-12-04T02:02:58;101398.16;;;7.43;100.00
9249;BME280;4660;41.768;26.198;2023-12-04T02:05:24;101392.25;;;7.38;100.00
9249;BME280;4660;41.768;26.198;2023-12-04T02:07:52;101408.63;;;7.47;100.00
9249;BME280;4660;41.768;26.198;2023-12-04T02:10:18;101405.94;;;7.47;100.00
9249;BME280;4660;41.768;26.198;2023-12-04T02:12:43;101410.97;;;7.38;100.00
9249;BME280;4660;41.768;26.198;2023-12-04T02:15:10;101398.97;;;7.31;100.00
9249;BME280;4660;41.768;26.198;2023-12-04T02:17:36;101379.81;;;7.37;100.00
9249;BME280;4660;41.768;26.198;2023-12-04T02:20:03;101373.84;;;7.59;100.00
9249;BME280;4660;41.768;26.198;2023-12-04T02:22:30;101366.13;;;7.55;100.00
9249;BME280;4660;41.768;26.198;2023-12-04T02:24:56;101370.06;;;7.49;100.00
9249;BME280;4660;41.768;26.198;2023-12-04T02:30:05;101384.84;;;7.29;100.00
9249;BME280;4660;41.768;26.198;2023-12-04T02:32:36;101394.13;;;7.24;100.00
9249;BME280;4660;41.768;26.198;2023-12-04T02:35:04;101404.56;;;7.01;100.00
9249;BME280;4660;41.768;26.198;2023-12-04T02:37:31;101416.75;;;7.05;100.00
9249;BME280;4660;41.768;26.198;2023-12-04T02:39:58;101404.75;;;6.98;100.00
9249;BME280;4660;41.768;26.198;2023-12-04T02:42:24;101434.50;;;6.94;100.00
9249;BME280;4660;41.768;26.198;2023-12-04T02:44:52;101443.66;;;6.89;100.00
9249;BME280;4660;41.768;26.198;2023-12-04T02:47:18;101454.34;;;6.89;100.00
9249;BME280;4660;41.768;26.198;2023-12-04T02:49:44;101452.81;;;6.85;100.00
9249;BME280;4660;41.768;26.198;2023-12-04T02:52:09;101443.13;;;6.70;100.00
9249;BME280;4660;41.768;26.198;2023-12-04T02:54:35;101456.88;;;6.64;100.00
9249;BME280;4660;41.768;26.198;2023-12-04T02:57:01;101442.97;;;6.45;100.00
9249;BME280;4660;41.768;26.198;2023-12-04T02:59:27;101463.50;;;6.44;100.00
9249;BME280;4660;41.768;26.198;2023-12-04T03:01:52;101453.47;;;6.48;100.00
9249;BME280;4660;41.768;26.198;2023-12-04T03:04:19;101447.47;;;6.44;100.00
9249;BME280;4660;41.768;26.198;2023-12-04T03:06:45;101434.88;;;6.46;100.00
9249;BME280;4660;41.768;26.198;2023-12-04T03:09:10;101419.41;;;6.51;100.00
9249;BME280;4660;41.768;26.198;2023-12-04T03:11:39;101429.78;;;6.56;100.00
9249;BME280;4660;41.768;26.198;2023-12-04T03:14:05;101443.53;;;6.50;100.00
9249;BME280;4660;41.768;26.198;2023-12-04T03:16:31;101451.38;;;6.53;100.00
9249;BME280;4660;41.768;26.198;2023-12-04T03:18:57;101450.38;;;6.68;100.00
9249;BME280;4660;41.768;26.198;2023-12-04T03:21:22;101441.06;;;6.47;100.00
9249;BME280;4660;41.768;26.198;2023-12-04T03:23:48;101470.66;;;6.58;100.00
9249;BME280;4660;41.768;26.198;2023-12-04T03:26:13;101482.28;;;6.57;100.00
9249;BME280;4660;41.768;26.198;2023-12-04T03:28:39;101482.13;;;6.46;100.00
9249;BME280;4660;41.768;26.198;2023-12-04T03:31:08;101484.22;;;6.41;100.00
9249;BME280;4660;41.768;26.198;2023-12-04T03:33:34;101482.41;;;6.41;100.00
9249;BME280;4660;41.768;26.198;2023-12-04T03:35:59;101480.19;;;6.19;100.00
9249;BME280;4660;41.768;26.198;2023-12-04T03:38:25;101458.72;;;6.06;100.00
9249;BME280;4660;41.768;26.198;2023-12-04T03:40:51;101468.06;;;6.14;100.00
9249;BME280;4660;41.768;26.198;2023-12-04T03:43:16;101461.38;;;6.06;100.00
9249;BME280;4660;41.768;26.198;2023-12-04T03:45:42;101460.16;;;5.98;100.00
9249;BME280;4660;41.768;26.198;2023-12-04T03:48:08;101478.75;;;5.99;100.00
9249;BME280;4660;41.768;26.198;2023-12-04T03:50:33;101482.28;;;6.14;100.00
9249;BME280;4660;41.768;26.198;2023-12-04T03:52:59;101490.31;;;6.28;100.00
9249;BME280;4660;41.768;26.198;2023-12-04T03:55:25;101480.19;;;6.05;100.00
9249;BME280;4660;41.768;26.198;2023-12-04T03:57:50;101491.84;;;6.32;100.00
9249;BME280;4660;41.768;26.198;2023-12-04T04:00:16;101492.81;;;6.17;100.00
9249;BME280;4660;41.768;26.198;2023-12-04T04:02:43;101503.84;;;6.11;100.00
9249;BME280;4660;41.768;26.198;2023-12-04T04:05:08;101507.59;;;6.09;100.00
9249;BME280;4660;41.768;26.198;2023-12-04T04:07:34;101511.28;;;6.06;100.00
9249;BME280;4660;41.768;26.198;2023-12-04T04:10:00;101510.25;;;6.09;100.00
9249;BME280;4660;41.768;26.198;2023-12-04T04:12:27;101514.34;;;6.14;100.00
9249;BME280;4660;41.768;26.198;2023-12-04T04:14:52;101514.72;;;5.94;100.00
9249;BME280;4660;41.768;26.198;2023-12-04T04:17:18;101533.97;;;5.99;100.00
9249;BME280;4660;41.768;26.198;2023-12-04T04:19:44;101518.72;;;6.01;100.00
9249;BME280;4660;41.768;26.198;2023-12-04T04:22:09;101530.75;;;5.94;100.00
9249;BME280;4660;41.768;26.198;2023-12-04T04:24:35;101536.94;;;5.94;100.00
9249;BME280;4660;41.768;26.198;2023-12-04T04:27:00;101536.00;;;5.79;100.00
9249;BME280;4660;41.768;26.198;2023-12-04T04:29:26;101522.41;;;5.68;100.00
9249;BME280;4660;41.768;26.198;2023-12-04T04:31:51;101543.50;;;5.73;100.00
9249;BME280;4660;41.768;26.198;2023-12-04T04:34:19;101549.09;;;5.68;100.00
9249;BME280;4660;41.768;26.198;2023-12-04T04:36:45;101555.16;;;5.72;100.00
9249;BME280;4660;41.768;26.198;2023-12-04T04:39:12;101563.72;;;5.77;100.00
9249;BME280;4660;41.768;26.198;2023-12-04T04:41:38;101556.16;;;5.69;100.00
9249;BME280;4660;41.768;26.198;2023-12-04T04:44:05;101575.25;;;5.77;100.00
9249;BME280;4660;41.768;26.198;2023-12-04T04:46:31;101571.63;;;5.78;100.00
9249;BME280;4660;41.768;26.198;2023-12-04T04:48:57;101571.22;;;5.70;100.00
9249;BME280;4660;41.768;26.198;2023-12-04T04:51:23;101557.88;;;5.70;100.00
9249;BME280;4660;41.768;26.198;2023-12-04T04:53:49;101565.47;;;5.62;100.00
9249;BME280;4660;41.768;26.198;2023-12-04T04:56:15;101558.78;;;5.55;100.00
9249;BME280;4660;41.768;26.198;2023-12-04T04:58:41;101547.25;;;5.55;100.00
9249;BME280;4660;41.768;26.198;2023-12-04T05:01:07;101545.53;;;5.53;100.00
9249;BME280;4660;41.768;26.198;2023-12-04T05:03:33;101568.25;;;5.61;100.00
9249;BME280;4660;41.768;26.198;2023-12-04T05:06:00;101582.31;;;5.78;100.00
9249;BME280;4660;41.768;26.198;2023-12-04T05:08:26;101588.28;;;5.68;100.00
9249;BME280;4660;41.768;26.198;2023-12-04T05:10:51;101601.13;;;5.61;100.00
9249;BME280;4660;41.768;26.198;2023-12-04T05:13:17;101591.34;;;5.46;100.00
9249;BME280;4660;41.768;26.198;2023-12-04T05:15:43;101608.03;;;5.65;100.00
9249;BME280;4660;41.768;26.198;2023-12-04T05:18:08;101599.56;;;5.57;100.00
9249;BME280;4660;41.768;26.198;2023-12-04T05:20:34;101596.13;;;5.55;100.00
9249;BME280;4660;41.768;26.198;2023-12-04T05:23:00;101611.47;;;5.67;100.00
9249;BME280;4660;41.768;26.198;2023-12-04T05:25:26;101621.88;;;5.72;100.00
9249;BME280;4660;41.768;26.198;2023-12-04T05:27:51;101628.53;;;5.65;100.00
9249;BME280;4660;41.768;26.198;2023-12-04T05:30:17;101620.25;;;5.69;100.00
9249;BME280;4660;41.768;26.198;2023-12-04T05:32:43;101620.78;;;5.60;100.00
9249;BME280;4660;41.768;26.198;2023-12-04T05:35:08;101635.94;;;5.44;100.00
9249;BME280;4660;41.768;26.198;2023-12-04T05:37:36;101637.97;;;5.70;100.00
9249;BME280;4660;41.768;26.198;2023-12-04T05:40:01;101653.91;;;5.56;100.00
9249;BME280;4660;41.768;26.198;2023-12-04T05:42:28;101637.31;;;5.51;100.00
9249;BME280;4660;41.768;26.198;2023-12-04T05:44:54;101651.19;;;5.58;100.00
9249;BME280;4660;41.768;26.198;2023-12-04T05:47:21;101669.16;;;5.70;100.00
9249;BME280;4660;41.768;26.198;2023-12-04T05:49:46;101648.72;;;5.85;100.00
9249;BME280;4660;41.768;26.198;2023-12-04T05:52:12;101662.69;;;5.90;100.00
9249;BME280;4660;41.768;26.198;2023-12-04T05:54:38;101660.53;;;5.80;100.00
9249;BME280;4660;41.768;26.198;2023-12-04T05:57:04;101674.00;;;5.95;100.00
9249;BME280;4660;41.768;26.198;2023-12-04T05:59:30;101675.38;;;5.86;100.00
9249;BME280;4660;41.768;26.198;2023-12-04T06:01:56;101690.03;;;5.79;100.00
9249;BME280;4660;41.768;26.198;2023-12-04T06:04:21;101677.06;;;5.71;100.00
9249;BME280;4660;41.768;26.198;2023-12-04T06:06:47;101688.78;;;5.69;100.00
9249;BME280;4660;41.768;26.198;2023-12-04T06:09:13;101676.56;;;5.49;100.00
9249;BME280;4660;41.768;26.198;2023-12-04T06:11:40;101692.94;;;5.74;100.00
9249;BME280;4660;41.768;26.198;2023-12-04T06:14:06;101652.19;;;5.71;100.00
9249;BME280;4660;41.768;26.198;2023-12-04T06:16:32;101702.59;;;5.93;100.00
9249;BME280;4660;41.768;26.198;2023-12-04T06:18:57;101696.53;;;5.89;100.00
9249;BME280;4660;41.768;26.198;2023-12-04T06:21:23;101707.66;;;5.82;100.00
9249;BME280;4660;41.768;26.198;2023-12-04T06:23:49;101702.41;;;5.80;100.00
9249;BME280;4660;41.768;26.198;2023-12-04T06:26:14;101711.44;;;5.77;100.00
9249;BME280;4660;41.768;26.198;2023-12-04T06:28:40;101700.41;;;5.68;100.00
9249;BME280;4660;41.768;26.198;2023-12-04T06:31:06;101707.94;;;5.93;100.00
9249;BME280;4660;41.768;26.198;2023-12-04T06:33:32;101722.66;;;6.00;100.00
9249;BME280;4660;41.768;26.198;2023-12-04T06:35:58;101714.75;;;5.98;100.00
9249;BME280;4660;41.768;26.198;2023-12-04T06:38:25;101720.00;;;6.00;100.00
9249;BME280;4660;41.768;26.198;2023-12-04T06:40:51;101730.66;;;5.84;100.00
9249;BME280;4660;41.768;26.198;2023-12-04T06:43:17;101705.84;;;5.66;100.00
9249;BME280;4660;41.768;26.198;2023-12-04T06:45:46;101690.75;;;5.49;100.00
9249;BME280;4660;41.768;26.198;2023-12-04T06:48:15;101715.91;;;5.61;100.00
9249;BME280;4660;41.768;26.198;2023-12-04T06:50:43;101717.97;;;5.56;100.00
9249;BME280;4660;41.768;26.198;2023-12-04T06:53:08;101736.06;;;5.51;100.00
9249;BME280;4660;41.768;26.198;2023-12-04T06:55:34;101745.38;;;5.60;100.00
9249;BME280;4660;41.768;26.198;2023-12-04T06:57:59;101744.00;;;5.68;100.00
9249;BME280;4660;41.768;26.198;2023-12-04T07:00:25;101742.19;;;5.85;100.00
9249;BME280;4660;41.768;26.198;2023-12-04T07:02:51;101740.13;;;5.90;100.00
9249;BME280;4660;41.768;26.198;2023-12-04T07:05:17;101758.22;;;5.85;100.00
9249;BME280;4660;41.768;26.198;2023-12-04T07:07:43;101755.72;;;5.82;100.00
9249;BME280;4660;41.768;26.198;2023-12-04T07:10:09;101750.53;;;5.63;100.00
9249;BME280;4660;41.768;26.198;2023-12-04T07:12:41;101755.00;;;5.62;100.00
9249;BME280;4660;41.768;26.198;2023-12-04T07:15:07;101768.63;;;5.58;100.00
9249;BME280;4660;41.768;26.198;2023-12-04T07:17:34;101745.09;;;5.64;100.00
9249;BME280;4660;41.768;26.198;2023-12-04T07:20:00;101763.75;;;5.82;100.00
9249;BME280;4660;41.768;26.198;2023-12-04T07:22:25;101746.47;;;5.71;100.00
9249;BME280;4660;41.768;26.198;2023-12-04T07:24:51;101770.50;;;5.71;100.00
9249;BME280;4660;41.768;26.198;2023-12-04T07:27:16;101772.38;;;5.38;100.00
9249;BME280;4660;41.768;26.198;2023-12-04T07:29:42;101783.63;;;5.43;100.00
9249;BME280;4660;41.768;26.198;2023-12-04T07:32:08;101785.03;;;5.50;100.00
9249;BME280;4660;41.768;26.198;2023-12-04T07:34:33;101749.63;;;5.31;100.00
9249;BME280;4660;41.768;26.198;2023-12-04T07:36:59;101790.66;;;5.61;100.00
9249;BME280;4660;41.768;26.198;2023-12-04T07:39:24;101808.69;;;5.73;100.00
9249;BME280;4660;41.768;26.198;2023-12-04T07:41:50;101771.34;;;5.56;100.00
9249;BME280;4660;41.768;26.198;2023-12-04T07:44:16;101795.72;;;5.99;100.00
9249;BME280;4660;41.768;26.198;2023-12-04T07:46:41;101787.44;;;5.88;100.00
9249;BME280;4660;41.768;26.198;2023-12-04T07:49:07;101806.47;;;5.82;100.00
9249;BME280;4660;41.768;26.198;2023-12-04T07:51:32;101787.16;;;5.76;100.00
9249;BME280;4660;41.768;26.198;2023-12-04T07:53:58;101808.38;;;5.79;100.00
9249;BME280;4660;41.768;26.198;2023-12-04T07:56:23;101810.63;;;5.87;100.00
9249;BME280;4660;41.768;26.198;2023-12-04T07:58:49;101827.22;;;5.76;100.00
9249;BME280;4660;41.768;26.198;2023-12-04T08:01:15;101817.16;;;5.82;100.00
9249;BME280;4660;41.768;26.198;2023-12-04T08:03:40;101820.06;;;5.77;100.00
9249;BME280;4660;41.768;26.198;2023-12-04T08:06:06;101835.13;;;6.11;100.00
9249;BME280;4660;41.768;26.198;2023-12-04T08:08:31;101801.50;;;6.07;100.00
9249;BME280;4660;41.768;26.198;2023-12-04T08:10:57;101822.19;;;6.35;100.00
9249;BME280;4660;41.768;26.198;2023-12-04T08:13:23;101819.00;;;6.28;100.00
9249;BME280;4660;41.768;26.198;2023-12-04T08:15:48;101828.50;;;6.18;100.00
9249;BME280;4660;41.768;26.198;2023-12-04T08:18:14;101811.00;;;5.97;100.00
9249;BME280;4660;41.768;26.198;2023-12-04T08:20:40;101795.16;;;5.94;100.00
9249;BME280;4660;41.768;26.198;2023-12-04T08:23:05;101813.22;;;6.20;100.00
9249;BME280;4660;41.768;26.198;2023-12-04T08:25:31;101818.84;;;6.16;100.00
9249;BME280;4660;41.768;26.198;2023-12-04T08:27:58;101805.84;;;6.25;100.00
9249;BME280;4660;41.768;26.198;2023-12-04T08:30:24;101817.66;;;6.37;100.00
9249;BME280;4660;41.768;26.198;2023-12-04T08:32:52;101810.41;;;6.23;100.00
9249;BME280;4660;41.768;26.198;2023-12-04T08:35:17;101822.28;;;6.33;100.00
9249;BME280;4660;41.768;26.198;2023-12-04T08:37:43;101824.25;;;6.14;100.00
9249;BME280;4660;41.768;26.198;2023-12-04T08:40:09;101822.97;;;6.05;100.00
9249;BME280;4660;41.768;26.198;2023-12-04T08:42:35;101830.97;;;6.05;100.00
9249;BME280;4660;41.768;26.198;2023-12-04T08:45:01;101828.75;;;6.14;100.00
9249;BME280;4660;41.768;26.198;2023-12-04T08:47:26;101822.00;;;5.91;100.00
9249;BME280;4660;41.768;26.198;2023-12-04T08:49:52;101833.94;;;6.17;100.00
9249;BME280;4660;41.768;26.198;2023-12-04T08:52:18;101793.06;;;5.99;100.00
9249;BME280;4660;41.768;26.198;2023-12-04T08:54:44;101833.41;;;6.57;100.00
9249;BME280;4660;41.768;26.198;2023-12-04T08:57:09;101824.09;;;6.49;100.00
9249;BME280;4660;41.768;26.198;2023-12-04T08:59:35;101803.47;;;6.35;100.00
9249;BME280;4660;41.768;26.198;2023-12-04T09:02:01;101822.66;;;6.43;100.00
9249;BME280;4660;41.768;26.198;2023-12-04T09:04:32;101797.22;;;6.36;100.00
9249;BME280;4660;41.768;26.198;2023-12-04T09:06:58;101796.16;;;6.39;100.00
9249;BME280;4660;41.768;26.198;2023-12-04T09:09:24;101817.78;;;6.66;100.00
9249;BME280;4660;41.768;26.198;2023-12-04T09:11:50;101802.63;;;6.34;100.00
9249;BME280;4660;41.768;26.198;2023-12-04T09:14:15;101793.56;;;6.53;100.00
9249;BME280;4660;41.768;26.198;2023-12-04T09:16:42;101797.53;;;6.46;100.00
9249;BME280;4660;41.768;26.198;2023-12-04T09:19:08;101818.84;;;6.47;100.00
9249;BME280;4660;41.768;26.198;2023-12-04T09:21:33;101798.59;;;6.43;100.00
9249;BME280;4660;41.768;26.198;2023-12-04T09:23:59;101784.09;;;6.31;100.00
9249;BME280;4660;41.768;26.198;2023-12-04T09:26:25;101783.28;;;6.61;100.00
9249;BME280;4660;41.768;26.198;2023-12-04T09:28:50;101760.47;;;6.40;100.00
9249;BME280;4660;41.768;26.198;2023-12-04T09:31:16;101743.97;;;6.47;100.00
9249;BME280;4660;41.768;26.198;2023-12-04T09:33:43;101779.16;;;6.85;100.00
9249;BME280;4660;41.768;26.198;2023-12-04T09:36:09;101741.47;;;7.04;100.00
9249;BME280;4660;41.768;26.198;2023-12-04T09:38:34;101786.69;;;7.23;100.00
9249;BME280;4660;41.768;26.198;2023-12-04T09:41:01;101777.13;;;7.19;100.00
9249;BME280;4660;41.768;26.198;2023-12-04T09:43:31;101786.13;;;7.32;100.00
9249;BME280;4660;41.768;26.198;2023-12-04T09:45:57;101754.25;;;6.99;100.00
9249;BME280;4660;41.768;26.198;2023-12-04T09:48:27;101802.66;;;7.25;100.00
9249;BME280;4660;41.768;26.198;2023-12-04T09:50:57;101772.97;;;6.99;100.00
9249;BME280;4660;41.768;26.198;2023-12-04T09:53:24;101786.13;;;7.18;100.00
9249;BME280;4660;41.768;26.198;2023-12-04T09:55:52;101762.19;;;7.01;100.00
9249;BME280;4660;41.768;26.198;2023-12-04T09:58:22;101784.75;;;7.11;100.00
9249;BME280;4660;41.768;26.198;2023-12-04T10:00:50;101780.53;;;7.07;100.00
9249;BME280;4660;41.768;26.198;2023-12-04T10:03:16;101796.59;;;7.07;100.00
9249;BME280;4660;41.768;26.198;2023-12-04T10:05:44;101775.28;;;7.05;100.00
9249;BME280;4660;41.768;26.198;2023-12-04T10:08:10;101771.72;;;6.90;100.00
9249;BME280;4660;41.768;26.198;2023-12-04T10:10:36;101770.69;;;6.93;100.00
9249;BME280;4660;41.768;26.198;2023-12-04T10:13:02;101782.25;;;6.94;100.00
9249;BME280;4660;41.768;26.198;2023-12-04T10:15:28;101781.28;;;6.95;100.00
9249;BME280;4660;41.768;26.198;2023-12-04T10:17:54;101785.03;;;7.06;100.00
9249;BME280;4660;41.768;26.198;2023-12-04T10:20:19;101772.63;;;7.20;100.00
9249;BME280;4660;41.768;26.198;2023-12-04T10:22:57;101767.19;;;7.21;100.00
9249;BME280;4660;41.768;26.198;2023-12-04T10:25:25;101754.75;;;7.34;100.00
9249;BME280;4660;41.768;26.198;2023-12-04T10:27:52;101766.75;;;7.43;100.00
9249;BME280;4660;41.768;26.198;2023-12-04T10:32:57;101759.63;;;7.56;100.00
9249;BME280;4660;41.768;26.198;2023-12-04T10:35:28;101750.75;;;7.56;100.00
9249;BME280;4660;41.768;26.198;2023-12-04T10:37:55;101752.66;;;7.68;100.00
9249;BME280;4660;41.768;26.198;2023-12-04T10:40:26;101748.13;;;7.83;100.00
9249;BME280;4660;41.768;26.198;2023-12-04T10:45:39;101762.72;;;8.06;100.00
9249;BME280;4660;41.768;26.198;2023-12-04T10:48:15;101748.97;;;7.97;100.00
9249;BME280;4660;41.768;26.198;2023-12-04T10:50:46;101749.56;;;7.88;100.00
9249;BME280;4660;41.768;26.198;2023-12-04T10:53:13;101761.44;;;7.70;100.00
9249;BME280;4660;41.768;26.198;2023-12-04T10:55:40;101767.97;;;7.52;100.00
9249;BME280;4660;41.768;26.198;2023-12-04T10:58:16;101760.59;;;7.69;100.00
9249;BME280;4660;41.768;26.198;2023-12-04T11:00:47;101759.59;;;7.99;100.00
9249;BME280;4660;41.768;26.198;2023-12-04T11:03:20;101762.22;;;7.72;100.00
9249;BME280;4660;41.768;26.198;2023-12-04T11:05:53;101774.28;;;7.65;100.00
9249;BME280;4660;41.768;26.198;2023-12-04T11:08:21;101746.72;;;7.49;100.00
9249;BME280;4660;41.768;26.198;2023-12-04T11:10:58;101760.13;;;7.49;100.00
9249;BME280;4660;41.768;26.198;2023-12-04T11:13:30;101757.81;;;7.28;100.00
9249;BME280;4660;41.768;26.198;2023-12-04T11:16:07;101761.47;;;7.41;100.00
9249;BME280;4660;41.768;26.198;2023-12-04T11:18:36;101768.34;;;7.45;100.00
9249;BME280;4660;41.768;26.198;2023-12-04T11:21:07;101766.81;;;7.41;100.00
9249;BME280;4660;41.768;26.198;2023-12-04T11:23:34;101764.34;;;7.53;100.00
9249;BME280;4660;41.768;26.198;2023-12-04T11:26:00;101766.63;;;7.59;100.00
9249;BME280;4660;41.768;26.198;2023-12-04T11:28:27;101749.78;;;7.57;100.00
9249;BME280;4660;41.768;26.198;2023-12-04T11:30:53;101792.09;;;7.66;100.00
9249;BME280;4660;41.768;26.198;2023-12-04T11:33:20;101787.28;;;7.57;100.00
9249;BME280;4660;41.768;26.198;2023-12-04T11:35:46;101774.94;;;7.54;100.00
9249;BME280;4660;41.768;26.198;2023-12-04T11:38:14;101768.84;;;7.52;100.00
9249;BME280;4660;41.768;26.198;2023-12-04T11:40:41;101784.44;;;7.60;100.00
9249;BME280;4660;41.768;26.198;2023-12-04T11:43:27;101759.75;;;7.40;100.00
9249;BME280;4660;41.768;26.198;2023-12-04T11:45:53;101773.72;;;7.60;100.00
9249;BME280;4660;41.768;26.198;2023-12-04T11:48:23;101789.00;;;7.86;100.00
9249;BME280;4660;41.768;26.198;2023-12-04T11:50:52;101779.81;;;7.90;100.00
9249;BME280;4660;41.768;26.198;2023-12-04T11:53:18;101767.84;;;7.82;100.00
9249;BME280;4660;41.768;26.198;2023-12-04T11:55:43;101752.00;;;7.79;100.00
9249;BME280;4660;41.768;26.198;2023-12-04T11:58:10;101780.44;;;8.08;100.00
9249;BME280;4660;41.768;26.198;2023-12-04T12:00:36;101779.16;;;7.87;100.00
9249;BME280;4660;41.768;26.198;2023-12-04T12:03:06;101774.28;;;7.65;100.00
9249;BME280;4660;41.768;26.198;2023-12-04T12:05:33;101778.59;;;7.67;100.00
9249;BME280;4660;41.768;26.198;2023-12-04T12:08:01;101753.25;;;7.73;100.00
9249;BME280;4660;41.768;26.198;2023-12-04T12:10:28;101763.09;;;7.58;100.00
9249;BME280;4660;41.768;26.198;2023-12-04T12:12:57;101758.78;;;7.70;100.00
9249;BME280;4660;41.768;26.198;2023-12-04T12:15:23;101763.75;;;7.62;100.00
9249;BME280;4660;41.768;26.198;2023-12-04T12:17:49;101776.75;;;7.68;100.00
9249;BME280;4660;41.768;26.198;2023-12-04T12:20:16;101774.09;;;7.68;100.00
9249;BME280;4660;41.768;26.198;2023-12-04T12:22:41;101765.47;;;7.63;100.00
9249;BME280;4660;41.768;26.198;2023-12-04T12:25:10;101755.63;;;7.49;100.00
9249;BME280;4660;41.768;26.198;2023-12-04T12:27:36;101768.94;;;7.79;100.00
9249;BME280;4660;41.768;26.198;2023-12-04T12:30:03;101769.41;;;7.71;100.00
9249;BME280;4660;41.768;26.198;2023-12-04T12:32:33;101759.09;;;7.65;100.00
9249;BME280;4660;41.768;26.198;2023-12-04T12:34:59;101735.84;;;7.52;100.00
9249;BME280;4660;41.768;26.198;2023-12-04T12:37:25;101753.59;;;7.81;100.00
9249;BME280;4660;41.768;26.198;2023-12-04T12:39:52;101755.72;;;7.76;100.00
9249;BME280;4660;41.768;26.198;2023-12-04T12:42:30;101753.41;;;7.70;100.00
9249;BME280;4660;41.768;26.198;2023-12-04T12:44:59;101766.63;;;7.73;100.00
9249;BME280;4660;41.768;26.198;2023-12-04T12:47:25;101745.47;;;7.83;100.00
9249;BME280;4660;41.768;26.198;2023-12-04T12:49:52;101770.03;;;8.04;100.00
9249;BME280;4660;41.768;26.198;2023-12-04T12:52:18;101764.66;;;8.04;100.00
9249;BME280;4660;41.768;26.198;2023-12-04T12:54:45;101747.91;;;8.00;100.00
9249;BME280;4660;41.768;26.198;2023-12-04T12:57:11;101752.34;;;7.87;100.00
9249;BME280;4660;41.768;26.198;2023-12-04T12:59:38;101757.50;;;7.90;100.00
9249;BME280;4660;41.768;26.198;2023-12-04T13:02:05;101751.00;;;7.94;100.00
9249;BME280;4660;41.768;26.198;2023-12-04T13:04:41;101773.28;;;8.09;100.00